createdAt,value
2023-05-19T00:00:48.938Z,11.65
2023-05-19T00:03:22.007Z,11.52
2023-05-19T00:05:53.729Z,11.36
2023-05-19T00:08:24.683Z,11.34
2023-05-19T00:10:52.888Z,11.36
2023-05-19T00:13:21.767Z,11.26
2023-05-19T00:15:51.054Z,11.27
2023-05-19T00:18:19.218Z,11.25
2023-05-19T00:20:47.077Z,11.19
2023-05-19T00:23:15.051Z,11.17
2023-05-19T00:25:43.004Z,11.11
2023-05-19T00:28:10.772Z,10.90
2023-05-19T00:30:38.665Z,10.86
2023-05-19T00:33:06.717Z,10.84
2023-05-19T00:35:34.703Z,10.87
2023-05-19T00:38:02.549Z,10.87
2023-05-19T00:40:32.144Z,10.81
2023-05-19T00:43:00.848Z,10.83
2023-05-19T00:45:29.255Z,10.88
2023-05-19T00:47:57.471Z,10.79
2023-05-19T00:50:27.328Z,10.71
2023-05-19T00:52:56.421Z,10.70
2023-05-19T00:55:30.109Z,10.68
2023-05-19T00:57:58.272Z,10.61
2023-05-19T01:00:26.177Z,10.67
2023-05-19T01:02:54.319Z,10.66
2023-05-19T01:05:22.517Z,10.61
2023-05-19T01:07:53.511Z,10.60
2023-05-19T01:10:21.664Z,10.58
2023-05-19T01:12:49.508Z,10.63
2023-05-19T01:15:17.687Z,10.58
2023-05-19T01:17:55.906Z,10.61
2023-05-19T01:20:41.634Z,10.49
2023-05-19T01:23:38.419Z,10.54
2023-05-19T01:26:55.035Z,10.49
2023-05-19T01:30:08.391Z,10.57
2023-05-19T01:32:40.804Z,10.49
2023-05-19T01:35:12.607Z,10.42
2023-05-19T01:37:41.209Z,10.46
2023-05-19T01:40:11.741Z,10.39
2023-05-19T01:42:40.736Z,10.38
2023-05-19T01:45:11.904Z,10.34
2023-05-19T01:47:43.534Z,10.42
2023-05-19T01:50:11.630Z,10.33
2023-05-19T01:52:39.607Z,10.26
2023-05-19T01:55:10.067Z,10.30
2023-05-19T01:58:17.126Z,10.38
2023-05-19T02:01:06.100Z,10.28
2023-05-19T02:04:27.372Z,10.25
2023-05-19T02:07:15.577Z,10.36
2023-05-19T02:10:10.701Z,10.45
2023-05-19T02:12:40.706Z,10.41
2023-05-19T02:15:25.925Z,10.29
2023-05-19T02:17:58.141Z,10.19
2023-05-19T02:20:26.073Z,10.23
2023-05-19T02:22:53.883Z,10.30
2023-05-19T02:25:23.329Z,10.34
2023-05-19T02:27:52.101Z,10.30
2023-05-19T02:30:20.046Z,10.20
2023-05-19T02:32:48.047Z,10.12
2023-05-19T02:35:17.468Z,10.16
2023-05-19T02:37:45.952Z,10.24
2023-05-19T02:40:13.815Z,10.14
2023-05-19T02:42:41.618Z,10.15
2023-05-19T02:45:11.032Z,10.18
2023-05-19T02:47:41.960Z,10.15
2023-05-19T02:50:10.039Z,10.14
2023-05-19T02:52:37.908Z,10.14
2023-05-19T02:55:06.511Z,10.23
2023-05-19T02:57:35.059Z,10.27
2023-05-19T03:00:03.504Z,10.21
2023-05-19T03:02:33.384Z,10.03
2023-05-19T03:05:03.651Z,9.99
2023-05-19T03:07:31.611Z,10.05
2023-05-19T03:09:59.549Z,10.02
2023-05-19T03:12:27.381Z,10.06
2023-05-19T03:14:55.307Z,10.03
2023-05-19T03:17:23.214Z,10.00
2023-05-19T03:19:51.413Z,10.09
2023-05-19T03:22:20.865Z,10.06
2023-05-19T03:24:51.072Z,10.21
2023-05-19T03:27:19.053Z,10.09
2023-05-19T03:29:47.017Z,9.95
2023-05-19T03:32:15.836Z,10.07
2023-05-19T03:34:43.852Z,10.08
2023-05-19T03:37:12.888Z,10.03
2023-05-19T03:39:41.454Z,10.00
2023-05-19T03:42:09.371Z,10.01
2023-05-19T03:44:37.200Z,10.19
2023-05-19T03:47:05.682Z,10.29
2023-05-19T03:49:53.515Z,10.26
2023-05-19T03:52:40.266Z,10.23
2023-05-19T03:55:16.254Z,10.31
2023-05-19T03:57:44.515Z,10.49
2023-05-19T04:00:13.372Z,10.47
2023-05-19T04:02:42.073Z,10.47
2023-05-19T04:05:10.749Z,10.36
2023-05-19T04:07:38.707Z,10.20
2023-05-19T04:10:07.671Z,10.15
2023-05-19T04:12:35.530Z,10.25
2023-05-19T04:15:06.152Z,10.38
2023-05-19T04:17:35.112Z,10.60
2023-05-19T04:20:03.010Z,10.62
2023-05-19T04:22:30.848Z,10.54
2023-05-19T04:24:59.246Z,10.54
2023-05-19T04:27:29.062Z,10.60
2023-05-19T04:29:58.068Z,10.88
2023-05-19T04:32:26.097Z,11.11
2023-05-19T04:34:54.590Z,11.10
2023-05-19T04:37:26.635Z,10.92
2023-05-19T04:39:55.357Z,10.82
2023-05-19T04:42:26.045Z,10.60
2023-05-19T04:44:54.124Z,10.81
2023-05-19T04:47:22.461Z,10.95
2023-05-19T04:49:55.514Z,11.05
2023-05-19T04:52:23.608Z,11.30
2023-05-19T04:54:52.805Z,11.61
2023-05-19T04:57:21.118Z,11.76
2023-05-19T04:59:49.556Z,11.76
2023-05-19T05:02:17.524Z,11.73
2023-05-19T05:04:46.589Z,11.87
2023-05-19T05:07:54.085Z,12.00
2023-05-19T05:10:23.359Z,12.11
2023-05-19T05:12:51.732Z,12.39
2023-05-19T05:15:20.998Z,12.69
2023-05-19T05:17:50.811Z,12.69
2023-05-19T05:20:20.044Z,12.82
2023-05-19T05:22:48.409Z,12.72
2023-05-19T05:25:17.610Z,12.55
2023-05-19T05:27:45.734Z,12.96
2023-05-19T05:30:14.997Z,13.11
2023-05-19T05:32:43.867Z,13.44
2023-05-19T05:35:24.254Z,13.48
2023-05-19T05:37:52.537Z,13.34
2023-05-19T05:40:20.551Z,13.58
2023-05-19T05:42:49.189Z,13.86
2023-05-19T05:45:18.560Z,13.83
2023-05-19T05:47:47.037Z,13.59
2023-05-19T05:50:15.777Z,13.70
2023-05-19T05:52:50.992Z,13.75
2023-05-19T05:55:19.753Z,14.08
2023-05-19T05:57:50.571Z,14.42
2023-05-19T06:00:19.604Z,14.61
2023-05-19T06:02:51.829Z,14.65
2023-05-19T06:05:21.092Z,14.42
2023-05-19T06:07:49.554Z,14.32
2023-05-19T06:10:22.278Z,14.21
2023-05-19T06:12:50.835Z,14.21
2023-05-19T06:15:18.719Z,14.32
2023-05-19T06:17:52.416Z,14.37
2023-05-19T06:20:20.517Z,14.75
2023-05-19T06:22:48.505Z,14.63
2023-05-19T06:25:17.698Z,14.66
2023-05-19T06:27:46.488Z,14.72
2023-05-19T06:30:14.838Z,15.03
2023-05-19T06:32:51.866Z,15.42
2023-05-19T06:35:19.712Z,15.84
2023-05-19T06:37:47.588Z,15.71
2023-05-19T06:40:16.101Z,15.38
2023-05-19T06:42:44.166Z,15.22
2023-05-19T06:45:22.001Z,15.15
2023-05-19T06:47:51.491Z,14.92
2023-05-19T06:50:20.241Z,15.06
2023-05-19T06:52:50.946Z,15.09
2023-05-19T06:55:19.670Z,14.56
2023-05-19T06:57:48.316Z,14.75
2023-05-19T07:00:19.942Z,14.72
2023-05-19T07:02:50.256Z,14.67
2023-05-19T07:05:19.305Z,14.67
2023-05-19T07:07:50.966Z,14.76
2023-05-19T07:10:21.966Z,14.84
2023-05-19T07:12:50.165Z,15.02
2023-05-19T07:15:18.805Z,14.82
2023-05-19T07:17:46.818Z,14.72
2023-05-19T07:20:15.817Z,14.81
2023-05-19T07:22:43.858Z,15.03
2023-05-19T07:25:11.697Z,15.08
2023-05-19T07:27:39.934Z,15.06
2023-05-19T07:30:08.632Z,14.68
2023-05-19T07:32:36.580Z,14.83
2023-05-19T07:35:06.516Z,15.40
2023-05-19T07:37:34.462Z,15.53
2023-05-19T07:40:02.467Z,15.26
2023-05-19T07:42:30.543Z,15.35
2023-05-19T07:44:58.370Z,15.41
2023-05-19T07:47:26.494Z,15.41
2023-05-19T07:49:54.341Z,14.93
2023-05-19T07:52:22.160Z,14.82
2023-05-19T07:54:50.048Z,14.55
2023-05-19T07:57:18.931Z,14.87
2023-05-19T07:59:46.837Z,15.17
2023-05-19T08:02:14.874Z,15.64
2023-05-19T08:04:42.999Z,15.78
2023-05-19T08:07:11.001Z,16.05
2023-05-19T08:09:38.964Z,15.70
2023-05-19T08:12:06.863Z,15.85
2023-05-19T08:14:34.892Z,15.60
2023-05-19T08:17:02.836Z,15.68
2023-05-19T08:19:30.799Z,15.86
2023-05-19T08:22:01.095Z,15.76
2023-05-19T08:24:30.125Z,15.70
2023-05-19T08:26:58.147Z,15.96
2023-05-19T08:29:26.173Z,16.35
2023-05-19T08:31:54.200Z,16.84
2023-05-19T08:34:22.406Z,16.80
2023-05-19T08:36:50.392Z,16.14
2023-05-19T08:39:24.132Z,15.85
2023-05-19T08:41:56.128Z,16.59
2023-05-19T08:44:24.353Z,17.34
2023-05-19T08:46:55.550Z,17.67
2023-05-19T08:49:28.482Z,17.74
2023-05-19T08:52:16.146Z,18.07
2023-05-19T08:54:53.173Z,17.94
2023-05-19T08:57:24.878Z,16.90
2023-05-19T08:59:55.795Z,16.90
2023-05-19T09:02:24.261Z,17.22
2023-05-19T09:04:53.264Z,17.67
2023-05-19T09:07:22.913Z,17.46
2023-05-19T09:09:50.771Z,16.98
2023-05-19T09:12:18.581Z,17.72
2023-05-19T09:14:47.189Z,18.09
2023-05-19T09:17:15.790Z,17.07
2023-05-19T09:19:48.197Z,17.32
2023-05-19T09:22:19.103Z,17.45
2023-05-19T09:24:47.469Z,17.78
2023-05-19T09:27:23.461Z,17.59
2023-05-19T09:29:51.594Z,17.88
2023-05-19T09:32:26.570Z,18.04
2023-05-19T09:34:55.147Z,17.70
2023-05-19T09:37:24.509Z,17.69
2023-05-19T09:39:53.508Z,17.84
2023-05-19T09:42:27.040Z,17.72
2023-05-19T09:45:02.951Z,17.85
2023-05-19T09:47:42.163Z,17.47
2023-05-19T09:50:12.616Z,18.02
2023-05-19T09:52:44.547Z,18.21
2023-05-19T09:55:13.480Z,17.28
2023-05-19T09:57:41.542Z,17.79
2023-05-19T10:00:17.854Z,17.77
2023-05-19T10:02:48.095Z,18.06
2023-05-19T10:05:20.718Z,17.87
2023-05-19T10:07:51.525Z,17.68
2023-05-19T10:10:22.368Z,17.14
2023-05-19T10:12:50.238Z,17.31
2023-05-19T10:15:23.173Z,17.39
2023-05-19T10:17:52.331Z,17.51
2023-05-19T10:20:20.262Z,17.27
2023-05-19T10:22:48.681Z,16.93
2023-05-19T10:25:18.554Z,16.99
2023-05-19T10:28:05.530Z,16.78
2023-05-19T10:30:39.590Z,16.36
2023-05-19T10:33:13.814Z,16.38
2023-05-19T10:36:14.717Z,16.52
2023-05-19T10:38:53.245Z,16.50
2023-05-19T10:41:47.559Z,16.66
2023-05-19T10:44:56.354Z,16.32
2023-05-19T10:47:26.191Z,15.99
2023-05-19T10:49:54.393Z,16.32
2023-05-19T10:52:29.824Z,16.43
2023-05-19T10:54:58.263Z,16.50
2023-05-19T10:57:32.108Z,16.48
2023-05-19T11:00:29.107Z,16.37
2023-05-19T11:03:15.302Z,16.33
2023-05-19T11:05:45.608Z,16.03
2023-05-19T11:08:14.057Z,15.98
2023-05-19T11:10:46.199Z,15.89
2023-05-19T11:13:23.720Z,15.85
2023-05-19T11:15:51.846Z,15.30
2023-05-19T11:18:21.291Z,15.08
2023-05-19T11:20:58.400Z,15.46
2023-05-19T11:23:26.620Z,15.55
2023-05-19T11:25:54.600Z,15.43
2023-05-19T11:28:26.359Z,15.36
2023-05-19T11:31:01.143Z,15.56
2023-05-19T11:33:30.017Z,15.85
2023-05-19T11:35:58.425Z,15.44
2023-05-19T11:38:28.558Z,15.40
2023-05-19T11:40:57.286Z,15.47
2023-05-19T11:43:26.287Z,15.79
2023-05-19T11:45:55.891Z,16.66
2023-05-19T11:48:26.192Z,17.40
2023-05-19T11:50:54.375Z,17.62
2023-05-19T11:53:23.129Z,17.49
2023-05-19T11:55:51.796Z,17.55
2023-05-19T11:58:26.578Z,17.71
2023-05-19T12:00:54.666Z,17.80
2023-05-19T12:03:28.050Z,17.76
2023-05-19T12:05:56.756Z,17.74
2023-05-19T12:08:25.758Z,17.37
2023-05-19T12:10:54.143Z,16.79
2023-05-19T12:13:22.967Z,16.87
2023-05-19T12:15:53.288Z,17.06
2023-05-19T12:18:21.449Z,17.35
2023-05-19T12:20:49.762Z,17.23
2023-05-19T12:23:17.877Z,17.63
2023-05-19T12:25:46.083Z,17.34
2023-05-19T12:28:16.418Z,16.94
2023-05-19T12:30:53.031Z,17.09
2023-05-19T12:33:22.759Z,17.29
2023-05-19T12:35:51.345Z,17.31
2023-05-19T12:38:19.882Z,17.21
2023-05-19T12:40:49.340Z,17.27
2023-05-19T12:43:22.734Z,17.14
2023-05-19T12:45:51.188Z,16.96
2023-05-19T12:48:22.638Z,17.36
2023-05-19T12:50:55.428Z,16.87
2023-05-19T12:53:26.425Z,16.82
2023-05-19T12:55:54.346Z,16.53
2023-05-19T12:58:23.284Z,16.48
2023-05-19T13:00:58.566Z,16.75
2023-05-19T13:03:26.712Z,16.80
2023-05-19T13:05:55.346Z,16.20
2023-05-19T13:08:24.676Z,16.20
2023-05-19T13:10:52.598Z,16.40
2023-05-19T13:13:20.467Z,16.14
2023-05-19T13:15:49.122Z,16.36
2023-05-19T13:18:17.939Z,16.70
2023-05-19T13:20:47.226Z,17.05
2023-05-19T13:23:16.079Z,16.99
2023-05-19T13:25:44.155Z,17.05
2023-05-19T13:28:12.288Z,17.33
2023-05-19T13:30:41.650Z,17.53
2023-05-19T13:33:10.076Z,17.29
2023-05-19T13:35:38.797Z,16.92
2023-05-19T13:38:09.877Z,16.75
2023-05-19T13:40:39.874Z,16.72
2023-05-19T13:43:08.888Z,16.56
2023-05-19T13:45:37.730Z,16.56
2023-05-19T13:48:07.366Z,16.53
2023-05-19T13:50:35.733Z,16.59
2023-05-19T13:53:03.760Z,16.69
2023-05-19T13:55:33.026Z,16.53
2023-05-19T13:58:00.933Z,16.49
2023-05-19T14:00:31.810Z,16.42
2023-05-19T14:03:00.298Z,16.48
2023-05-19T14:05:29.214Z,16.21
2023-05-19T14:07:57.969Z,16.23
2023-05-19T14:10:26.053Z,16.61
2023-05-19T14:13:22.843Z,16.48
2023-05-19T14:15:42.037Z,15.91
2023-05-19T14:18:10.150Z,15.93
2023-05-19T14:20:38.029Z,16.01
2023-05-19T14:23:06.166Z,16.00
2023-05-19T14:25:34.014Z,15.68
2023-05-19T14:28:01.842Z,15.55
2023-05-19T14:30:29.724Z,15.65
2023-05-19T14:32:57.676Z,16.07
2023-05-19T14:35:26.023Z,15.82
2023-05-19T14:37:53.976Z,15.39
2023-05-19T14:40:22.070Z,15.45
2023-05-19T14:42:49.985Z,15.86
2023-05-19T14:45:18.044Z,16.03
2023-05-19T14:47:47.073Z,16.07
2023-05-19T14:50:15.927Z,15.46
2023-05-19T14:52:43.921Z,15.03
2023-05-19T14:55:11.873Z,15.41
2023-05-19T14:57:39.824Z,15.91
2023-05-19T15:00:11.015Z,15.56
2023-05-19T15:02:38.998Z,15.45
2023-05-19T15:05:08.582Z,15.51
2023-05-19T15:07:36.452Z,15.24
2023-05-19T15:10:05.044Z,15.31
2023-05-19T15:12:32.885Z,15.16
2023-05-19T15:15:00.870Z,15.33
2023-05-19T15:17:28.827Z,15.35
2023-05-19T15:19:56.738Z,15.58
2023-05-19T15:22:24.617Z,15.24
2023-05-19T15:24:52.400Z,15.24
2023-05-19T15:27:21.079Z,15.52
2023-05-19T15:29:49.176Z,15.64
2023-05-19T15:32:17.162Z,15.73
2023-05-19T15:34:45.063Z,15.38
2023-05-19T15:37:12.899Z,15.46
2023-05-19T15:39:40.752Z,15.31
2023-05-19T15:42:08.582Z,15.20
2023-05-19T15:44:36.686Z,15.20
2023-05-19T15:47:04.820Z,14.96
2023-05-19T15:49:32.680Z,15.23
2023-05-19T15:52:00.605Z,15.40
2023-05-19T15:54:28.477Z,15.55
2023-05-19T15:56:56.296Z,15.61
2023-05-19T15:59:24.597Z,15.75
2023-05-19T16:01:53.133Z,15.14
2023-05-19T16:04:21.690Z,15.22
2023-05-19T16:06:49.698Z,15.14
2023-05-19T16:09:17.668Z,15.09
2023-05-19T16:11:45.549Z,15.37
2023-05-19T16:14:14.177Z,15.43
2023-05-19T16:16:42.326Z,14.89
2023-05-19T16:19:10.543Z,14.95
2023-05-19T16:21:38.563Z,15.31
2023-05-19T16:24:06.715Z,15.39
2023-05-19T16:26:34.617Z,14.84
2023-05-19T16:29:02.566Z,14.80
2023-05-19T16:31:30.925Z,14.78
2023-05-19T16:33:58.816Z,14.52
2023-05-19T16:36:26.934Z,14.74
2023-05-19T16:38:54.859Z,15.04
2023-05-19T16:41:22.967Z,14.93
2023-05-19T16:43:50.867Z,14.75
2023-05-19T16:46:18.722Z,14.75
2023-05-19T16:48:46.696Z,14.75
2023-05-19T16:51:14.787Z,14.83
2023-05-19T16:53:42.659Z,14.96
2023-05-19T16:56:10.648Z,14.92
2023-05-19T16:58:38.799Z,14.88
2023-05-19T17:01:06.752Z,14.95
2023-05-19T17:03:35.667Z,14.91
2023-05-19T17:06:03.755Z,14.83
2023-05-19T17:08:31.852Z,14.81
2023-05-19T17:10:59.849Z,14.86
2023-05-19T17:13:29.659Z,14.74
2023-05-19T17:15:57.537Z,14.80
2023-05-19T17:18:25.403Z,14.57
2023-05-19T17:20:53.272Z,14.49
2023-05-19T17:23:21.520Z,14.61
2023-05-19T17:25:54.025Z,14.42
2023-05-19T17:28:22.033Z,14.61
2023-05-19T17:30:49.924Z,14.52
2023-05-19T17:33:19.911Z,14.18
2023-05-19T17:35:47.857Z,14.28
2023-05-19T17:38:15.839Z,14.35
2023-05-19T17:40:43.763Z,14.10
2023-05-19T17:43:11.654Z,14.17
2023-05-19T17:45:39.595Z,14.20
2023-05-19T17:48:08.589Z,14.10
2023-05-19T17:50:36.426Z,14.30
2023-05-19T17:53:04.619Z,14.57
2023-05-19T17:55:33.414Z,14.72
2023-05-19T17:58:01.809Z,14.63
2023-05-19T18:00:30.073Z,14.36
2023-05-19T18:02:58.913Z,14.51
2023-05-19T18:05:27.603Z,14.27
2023-05-19T18:07:57.479Z,13.98
2023-05-19T18:10:26.209Z,14.11
2023-05-19T18:12:54.140Z,14.00
2023-05-19T18:15:22.062Z,14.08
2023-05-19T18:17:49.973Z,14.12
2023-05-19T18:20:18.245Z,14.06
2023-05-19T18:22:46.955Z,14.16
2023-05-19T18:25:14.849Z,14.13
2023-05-19T18:27:43.784Z,14.10
2023-05-19T18:30:11.783Z,13.91
2023-05-19T18:32:42.411Z,13.85
2023-05-19T18:35:10.557Z,14.11
2023-05-19T18:37:38.442Z,14.12
2023-05-19T18:40:10.782Z,14.05
2023-05-19T18:42:38.965Z,14.00
2023-05-19T18:45:07.544Z,14.08
2023-05-19T18:47:35.549Z,14.06
2023-05-19T18:50:04.054Z,13.89
2023-05-19T18:52:31.984Z,13.83
2023-05-19T18:55:01.166Z,13.69
2023-05-19T18:57:29.118Z,13.73
2023-05-19T18:59:56.944Z,13.95
2023-05-19T19:02:25.048Z,13.91
2023-05-19T19:04:53.626Z,13.85
2023-05-19T19:07:21.575Z,13.82
2023-05-19T19:09:49.471Z,13.81
2023-05-19T19:12:18.459Z,13.90
2023-05-19T19:14:48.191Z,14.08
2023-05-19T19:17:16.165Z,14.08
2023-05-19T19:19:44.356Z,13.85
2023-05-19T19:22:12.308Z,13.80
2023-05-19T19:24:42.958Z,13.85
2023-05-19T19:27:11.008Z,13.84
2023-05-19T19:29:38.856Z,13.86
2023-05-19T19:32:07.343Z,13.69
2023-05-19T19:34:36.416Z,13.62
2023-05-19T19:37:04.387Z,13.52
2023-05-19T19:39:32.412Z,13.51
2023-05-19T19:42:00.300Z,13.59
2023-05-19T19:44:28.261Z,13.55
2023-05-19T19:46:56.264Z,13.52
2023-05-19T19:49:24.161Z,13.46
2023-05-19T19:51:52.007Z,13.50
2023-05-19T19:54:19.949Z,13.59
2023-05-19T19:56:47.753Z,13.54
2023-05-19T19:59:16.002Z,13.73
2023-05-19T20:01:44.029Z,13.73
2023-05-19T20:04:12.474Z,13.54
2023-05-19T20:06:40.532Z,13.53
2023-05-19T20:09:08.510Z,13.54
2023-05-19T20:11:36.519Z,13.64
2023-05-19T20:14:04.453Z,13.63
2023-05-19T20:16:32.457Z,13.64
2023-05-19T20:19:01.536Z,13.71
2023-05-19T20:21:29.571Z,13.60
2023-05-19T20:23:57.656Z,13.57
2023-05-19T20:26:25.573Z,13.54
2023-05-19T20:28:53.503Z,13.53
2023-05-19T20:31:24.708Z,13.51
2023-05-19T20:33:52.679Z,13.58
2023-05-19T20:36:20.940Z,13.78
2023-05-19T20:38:48.834Z,13.72
2023-05-19T20:41:16.804Z,13.56
2023-05-19T20:43:44.624Z,13.55
2023-05-19T20:46:12.819Z,13.64
2023-05-19T20:48:41.080Z,13.54
2023-05-19T20:51:08.905Z,13.41
2023-05-19T20:53:36.958Z,13.36
2023-05-19T20:56:07.127Z,13.55
2023-05-19T20:58:34.908Z,13.56
2023-05-19T21:01:03.485Z,13.51
2023-05-19T21:03:32.383Z,13.52
2023-05-19T21:06:00.783Z,13.67
2023-05-19T21:08:29.783Z,13.79
2023-05-19T21:10:57.613Z,13.59
2023-05-19T21:13:25.526Z,13.46
2023-05-19T21:15:55.825Z,13.51
2023-05-19T21:18:23.689Z,13.49
2023-05-19T21:20:51.471Z,13.50
2023-05-19T21:23:19.380Z,13.59
2023-05-19T21:25:47.318Z,13.50
2023-05-19T21:28:15.679Z,13.39
2023-05-19T21:30:48.974Z,13.46
2023-05-19T21:33:17.193Z,13.46
2023-05-19T21:35:46.014Z,13.44
2023-05-19T21:38:23.289Z,13.46
2023-05-19T21:40:53.171Z,13.44
2023-05-19T21:43:21.916Z,13.38
2023-05-19T21:45:49.953Z,13.43
2023-05-19T21:48:18.090Z,13.55
2023-05-19T21:50:45.963Z,13.48
2023-05-19T21:53:13.868Z,13.45
2023-05-19T21:55:41.761Z,13.28
2023-05-19T21:58:09.676Z,13.29
2023-05-19T22:00:38.221Z,13.30
2023-05-19T22:03:06.696Z,13.26
2023-05-19T22:05:35.428Z,13.29
2023-05-19T22:08:03.633Z,13.26
2023-05-19T22:10:32.046Z,13.26
2023-05-19T22:13:00.230Z,13.39
2023-05-19T22:15:28.224Z,13.46
2023-05-19T22:17:56.235Z,13.58
2023-05-19T22:20:24.521Z,13.60
2023-05-19T22:22:52.545Z,13.56
2023-05-19T22:25:20.777Z,13.42
2023-05-19T22:27:48.661Z,13.39
2023-05-19T22:30:17.127Z,13.27
2023-05-19T22:32:45.385Z,13.29
2023-05-19T22:35:13.486Z,13.33
2023-05-19T22:37:41.326Z,13.15
2023-05-19T22:40:09.478Z,13.14
2023-05-19T22:42:37.318Z,13.25
2023-05-19T22:45:06.254Z,13.37
2023-05-19T22:47:34.180Z,13.22
2023-05-19T22:50:02.447Z,13.30
2023-05-19T22:52:30.630Z,13.35
2023-05-19T22:54:58.746Z,13.27
2023-05-19T22:57:26.606Z,13.19
2023-05-19T22:59:54.448Z,13.15
2023-05-19T23:02:22.531Z,13.11
2023-05-19T23:04:50.515Z,13.10
2023-05-19T23:07:18.312Z,13.02
2023-05-19T23:09:46.376Z,12.94
2023-05-19T23:12:14.212Z,13.08
2023-05-19T23:14:42.130Z,13.14
2023-05-19T23:17:10.034Z,13.11
2023-05-19T23:19:38.388Z,13.10
2023-05-19T23:22:06.255Z,13.02
2023-05-19T23:24:34.102Z,12.91
2023-05-19T23:27:02.101Z,12.93
2023-05-19T23:29:29.968Z,12.76
2023-05-19T23:31:57.883Z,12.77
2023-05-19T23:34:25.912Z,12.90
2023-05-19T23:36:53.777Z,12.77
2023-05-19T23:39:22.060Z,12.73
2023-05-19T23:41:49.993Z,12.77
2023-05-19T23:44:18.759Z,12.77
2023-05-19T23:46:46.682Z,12.85
2023-05-19T23:49:14.675Z,12.81
2023-05-19T23:51:42.479Z,12.85
2023-05-19T23:54:10.322Z,12.75
2023-05-19T23:56:38.204Z,12.76
2023-05-19T23:59:06.159Z,12.74
